This is the latest recevied weather packets stored in our database for station/object W5HKR. If no packets are shown the sender has not sent any weather packets the latest 10 day(s).
| Time | Temp. | Humidity | Pressure | Rain* | Wind** | Luminosity | Snow |
|---|---|---|---|---|---|---|---|
| 1777737500 | 18.33° C | 91% | 990.6 hPa | 0 mm | - | - | - |
| 1777737199 | 18.33° C | 91% | 990.6 hPa | 0 mm | - | - | - |
| 1777736899 | 18.33° C | 91% | 990.6 hPa | 0 mm | - | - | - |
| 1777736749 | 19.44° C | 54% | 994 hPa | 0 mm | - | - | - |
| 1777736597 | 18.33° C | 91% | 990.6 hPa | 0 mm | - | - | - |
| 1777736297 | 18.33° C | 91% | 990.6 hPa | 0 mm | - | - | - |
| 1777735999 | 18.89° C | 57% | 993.9 hPa | 0 mm | - | - | - |
| 1777735700 | 18.89° C | 58% | 993.9 hPa | 0 mm | - | - | - |
| 1777735669 | 18.89° C | 58% | 993.9 hPa | 0 mm | - | - | - |
| 1777735398 | 18.89° C | 57% | 993.8 hPa | 0 mm | - | - | - |
| 1777735098 | 18.89° C | 58% | 993.6 hPa | 0 mm | - | - | - |
| 1777734799 | 18.33° C | 62% | 993.9 hPa | 0 mm | - | - | - |
| 1777734588 | 18.33° C | 59% | 993.9 hPa | 0 mm | - | - | - |
| 1777734499 | 18.33° C | 91% | 990.6 hPa | 0 mm | - | - | - |
| 1777734199 | 18.33° C | 91% | 990.6 hPa | 0 mm | - | - | - |
| 1777733898 | 17.78° C | 63% | 993.6 hPa | 0 mm | - | - | - |
| 1777733598 | 17.78° C | 62% | 993.6 hPa | 0 mm | - | - | - |
| 1777733510 | 18.33° C | 91% | 990.6 hPa | 0 mm | - | - | - |
| 1777733298 | 17.78° C | 63% | 993.6 hPa | 0 mm | - | - | - |
| 1777732997 | 18.33° C | 91% | 990.6 hPa | 0 mm | - | - | - |
| 1777732699 | 18.33° C | 91% | 990.6 hPa | 0 mm | - | - | - |
| 1777732429 | 18.33° C | 91% | 990.6 hPa | 0 mm | - | - | - |
| 1777732398 | 16.67° C | 64% | 993.1 hPa | 0 mm | - | - | - |
| 1777732098 | 16.67° C | 64% | 993.4 hPa | 0 mm | - | - | - |
| 1777731798 | 18.33° C | 91% | 990.6 hPa | 0 mm | - | - | - |
* Rain latest hour (hover to see other rain measurements)
** Current wind speed in m/s (hover to see current wind gust speed)